sensor_id;sensor_type;location;lat;lon;timestamp;P1;durP1;ratioP1;P2;durP2;ratioP2
37955;SDS011;23776;51.592;7.180;2022-08-02T00:01:43;8.70;;;3.70;;
37955;SDS011;23776;51.592;7.180;2022-08-02T00:04:09;8.48;;;4.00;;
37955;SDS011;23776;51.592;7.180;2022-08-02T00:06:35;5.22;;;3.47;;
37955;SDS011;23776;51.592;7.180;2022-08-02T00:09:02;5.40;;;3.83;;
37955;SDS011;23776;51.592;7.180;2022-08-02T00:11:28;9.68;;;3.65;;
37955;SDS011;23776;51.592;7.180;2022-08-02T00:13:54;9.63;;;4.00;;
37955;SDS011;23776;51.592;7.180;2022-08-02T00:16:20;9.07;;;4.20;;
37955;SDS011;23776;51.592;7.180;2022-08-02T00:18:45;8.88;;;3.92;;
37955;SDS011;23776;51.592;7.180;2022-08-02T00:21:11;7.18;;;3.72;;
37955;SDS011;23776;51.592;7.180;2022-08-02T00:23:37;7.78;;;4.45;;
37955;SDS011;23776;51.592;7.180;2022-08-02T00:26:02;6.15;;;3.50;;
37955;SDS011;23776;51.592;7.180;2022-08-02T00:28:28;6.65;;;3.58;;
37955;SDS011;23776;51.592;7.180;2022-08-02T00:30:54;15.38;;;4.10;;
37955;SDS011;23776;51.592;7.180;2022-08-02T00:33:23;8.55;;;3.50;;
37955;SDS011;23776;51.592;7.180;2022-08-02T00:35:49;4.82;;;3.47;;
37955;SDS011;23776;51.592;7.180;2022-08-02T00:38:14;5.65;;;3.30;;
37955;SDS011;23776;51.592;7.180;2022-08-02T00:40:45;6.57;;;3.30;;
37955;SDS011;23776;51.592;7.180;2022-08-02T00:43:11;10.73;;;3.72;;
37955;SDS011;23776;51.592;7.180;2022-08-02T00:45:37;7.55;;;3.58;;
37955;SDS011;23776;51.592;7.180;2022-08-02T00:48:06;7.72;;;3.78;;
37955;SDS011;23776;51.592;7.180;2022-08-02T00:50:33;6.55;;;3.45;;
37955;SDS011;23776;51.592;7.180;2022-08-02T00:53:00;6.85;;;3.92;;
37955;SDS011;23776;51.592;7.180;2022-08-02T00:55:26;10.45;;;3.83;;
37955;SDS011;23776;51.592;7.180;2022-08-02T00:57:53;8.18;;;3.47;;
37955;SDS011;23776;51.592;7.180;2022-08-02T01:00:19;7.05;;;3.63;;
37955;SDS011;23776;51.592;7.180;2022-08-02T01:02:45;9.55;;;4.22;;
37955;SDS011;23776;51.592;7.180;2022-08-02T01:05:11;8.30;;;3.97;;
37955;SDS011;23776;51.592;7.180;2022-08-02T01:07:37;8.10;;;3.30;;
37955;SDS011;23776;51.592;7.180;2022-08-02T01:10:03;8.88;;;3.70;;
37955;SDS011;23776;51.592;7.180;2022-08-02T01:12:29;5.35;;;2.80;;
37955;SDS011;23776;51.592;7.180;2022-08-02T01:14:56;9.23;;;3.30;;
37955;SDS011;23776;51.592;7.180;2022-08-02T01:28:27;5.32;;;3.40;;
37955;SDS011;23776;51.592;7.180;2022-08-02T01:31:13;6.95;;;3.50;;
37955;SDS011;23776;51.592;7.180;2022-08-02T01:33:47;8.25;;;4.00;;
37955;SDS011;23776;51.592;7.180;2022-08-02T01:36:23;6.50;;;3.08;;
37955;SDS011;23776;51.592;7.180;2022-08-02T01:38:53;6.68;;;3.70;;
37955;SDS011;23776;51.592;7.180;2022-08-02T01:41:21;7.20;;;3.20;;
37955;SDS011;23776;51.592;7.180;2022-08-02T01:43:50;7.57;;;3.58;;
37955;SDS011;23776;51.592;7.180;2022-08-02T01:46:19;7.05;;;3.47;;
37955;SDS011;23776;51.592;7.180;2022-08-02T01:48:46;4.40;;;2.92;;
37955;SDS011;23776;51.592;7.180;2022-08-02T01:51:15;9.05;;;3.45;;
37955;SDS011;23776;51.592;7.180;2022-08-02T01:53:42;8.07;;;3.40;;
37955;SDS011;23776;51.592;7.180;2022-08-02T01:56:12;4.20;;;3.28;;
37955;SDS011;23776;51.592;7.180;2022-08-02T01:58:38;6.03;;;3.22;;
37955;SDS011;23776;51.592;7.180;2022-08-02T02:01:06;9.85;;;3.28;;
37955;SDS011;23776;51.592;7.180;2022-08-02T02:03:34;5.60;;;3.58;;
37955;SDS011;23776;51.592;7.180;2022-08-02T02:06:01;6.88;;;3.38;;
37955;SDS011;23776;51.592;7.180;2022-08-02T02:08:39;7.35;;;3.47;;
37955;SDS011;23776;51.592;7.180;2022-08-02T02:11:07;12.93;;;3.85;;
37955;SDS011;23776;51.592;7.180;2022-08-02T02:13:33;6.78;;;3.53;;
37955;SDS011;23776;51.592;7.180;2022-08-02T02:16:04;4.93;;;3.30;;
37955;SDS011;23776;51.592;7.180;2022-08-02T02:18:30;13.30;;;3.92;;
37955;SDS011;23776;51.592;7.180;2022-08-02T02:21:02;7.20;;;3.65;;
37955;SDS011;23776;51.592;7.180;2022-08-02T02:23:28;6.65;;;3.50;;
37955;SDS011;23776;51.592;7.180;2022-08-02T02:25:53;8.60;;;4.10;;
37955;SDS011;23776;51.592;7.180;2022-08-02T02:28:21;6.72;;;3.58;;
37955;SDS011;23776;51.592;7.180;2022-08-02T02:30:54;12.93;;;4.32;;
37955;SDS011;23776;51.592;7.180;2022-08-02T02:33:29;8.50;;;3.78;;
37955;SDS011;23776;51.592;7.180;2022-08-02T02:35:57;9.93;;;3.85;;
37955;SDS011;23776;51.592;7.180;2022-08-02T02:38:26;9.18;;;4.07;;
37955;SDS011;23776;51.592;7.180;2022-08-02T02:40:55;8.23;;;4.55;;
37955;SDS011;23776;51.592;7.180;2022-08-02T02:43:26;7.38;;;3.92;;
37955;SDS011;23776;51.592;7.180;2022-08-02T02:45:54;10.30;;;3.72;;
37955;SDS011;23776;51.592;7.180;2022-08-02T02:48:21;7.60;;;3.75;;
37955;SDS011;23776;51.592;7.180;2022-08-02T02:50:48;6.85;;;3.60;;
37955;SDS011;23776;51.592;7.180;2022-08-02T02:53:16;8.95;;;4.10;;
37955;SDS011;23776;51.592;7.180;2022-08-02T02:55:42;7.53;;;3.55;;
37955;SDS011;23776;51.592;7.180;2022-08-02T02:58:09;12.15;;;4.35;;
37955;SDS011;23776;51.592;7.180;2022-08-02T03:00:36;8.40;;;4.00;;
37955;SDS011;23776;51.592;7.180;2022-08-02T03:03:20;9.52;;;4.25;;
37955;SDS011;23776;51.592;7.180;2022-08-02T03:05:46;8.35;;;4.10;;
37955;SDS011;23776;51.592;7.180;2022-08-02T03:08:12;8.75;;;3.97;;
37955;SDS011;23776;51.592;7.180;2022-08-02T03:10:38;8.55;;;4.18;;
37955;SDS011;23776;51.592;7.180;2022-08-02T03:13:04;7.65;;;4.25;;
37955;SDS011;23776;51.592;7.180;2022-08-02T03:15:30;9.07;;;4.68;;
37955;SDS011;23776;51.592;7.180;2022-08-02T03:17:56;10.15;;;4.95;;
37955;SDS011;23776;51.592;7.180;2022-08-02T03:20:22;7.35;;;4.68;;
37955;SDS011;23776;51.592;7.180;2022-08-02T03:22:47;10.52;;;4.88;;
37955;SDS011;23776;51.592;7.180;2022-08-02T03:25:14;11.57;;;4.90;;
37955;SDS011;23776;51.592;7.180;2022-08-02T03:27:40;7.32;;;4.80;;
37955;SDS011;23776;51.592;7.180;2022-08-02T03:30:07;8.23;;;4.13;;
37955;SDS011;23776;51.592;7.180;2022-08-02T03:32:35;10.23;;;4.53;;
37955;SDS011;23776;51.592;7.180;2022-08-02T03:35:04;8.23;;;4.88;;
37955;SDS011;23776;51.592;7.180;2022-08-02T03:37:31;11.00;;;4.47;;
37955;SDS011;23776;51.592;7.180;2022-08-02T03:39:59;8.23;;;4.47;;
37955;SDS011;23776;51.592;7.180;2022-08-02T03:42:26;10.10;;;3.92;;
37955;SDS011;23776;51.592;7.180;2022-08-02T03:44:53;11.27;;;4.88;;
37955;SDS011;23776;51.592;7.180;2022-08-02T03:47:20;9.95;;;4.38;;
37955;SDS011;23776;51.592;7.180;2022-08-02T03:49:46;7.50;;;4.60;;
37955;SDS011;23776;51.592;7.180;2022-08-02T03:52:13;10.85;;;4.45;;
37955;SDS011;23776;51.592;7.180;2022-08-02T03:54:39;13.15;;;5.28;;
37955;SDS011;23776;51.592;7.180;2022-08-02T03:57:05;13.75;;;5.32;;
37955;SDS011;23776;51.592;7.180;2022-08-02T03:59:41;8.50;;;4.85;;
37955;SDS011;23776;51.592;7.180;2022-08-02T04:02:08;13.95;;;5.38;;
37955;SDS011;23776;51.592;7.180;2022-08-02T04:04:34;9.75;;;4.93;;
37955;SDS011;23776;51.592;7.180;2022-08-02T04:07:00;10.63;;;5.20;;
37955;SDS011;23776;51.592;7.180;2022-08-02T04:09:25;9.63;;;4.85;;
37955;SDS011;23776;51.592;7.180;2022-08-02T04:11:51;11.27;;;4.93;;
37955;SDS011;23776;51.592;7.180;2022-08-02T04:14:16;7.32;;;4.18;;
37955;SDS011;23776;51.592;7.180;2022-08-02T04:19:09;11.13;;;4.25;;
37955;SDS011;23776;51.592;7.180;2022-08-02T04:21:39;5.55;;;3.83;;
37955;SDS011;23776;51.592;7.180;2022-08-02T04:24:07;8.60;;;4.72;;
37955;SDS011;23776;51.592;7.180;2022-08-02T04:26:35;7.05;;;4.57;;
37955;SDS011;23776;51.592;7.180;2022-08-02T04:29:01;7.55;;;4.68;;
37955;SDS011;23776;51.592;7.180;2022-08-02T04:31:28;9.90;;;5.03;;
37955;SDS011;23776;51.592;7.180;2022-08-02T04:33:54;9.15;;;5.07;;
37955;SDS011;23776;51.592;7.180;2022-08-02T04:36:20;14.07;;;5.88;;
37955;SDS011;23776;51.592;7.180;2022-08-02T04:38:47;13.45;;;6.25;;
37955;SDS011;23776;51.592;7.180;2022-08-02T04:41:14;10.75;;;6.00;;
37955;SDS011;23776;51.592;7.180;2022-08-02T04:43:40;9.75;;;5.97;;
37955;SDS011;23776;51.592;7.180;2022-08-02T04:46:05;14.68;;;6.82;;
37955;SDS011;23776;51.592;7.180;2022-08-02T04:48:31;20.08;;;7.50;;
37955;SDS011;23776;51.592;7.180;2022-08-02T04:50:57;14.15;;;5.97;;
37955;SDS011;23776;51.592;7.180;2022-08-02T04:53:22;14.85;;;6.53;;
37955;SDS011;23776;51.592;7.180;2022-08-02T04:55:48;12.65;;;6.05;;
37955;SDS011;23776;51.592;7.180;2022-08-02T04:58:14;14.10;;;6.28;;
37955;SDS011;23776;51.592;7.180;2022-08-02T05:00:39;18.67;;;6.60;;
37955;SDS011;23776;51.592;7.180;2022-08-02T05:03:05;12.98;;;6.13;;
37955;SDS011;23776;51.592;7.180;2022-08-02T05:05:31;14.65;;;6.50;;
37955;SDS011;23776;51.592;7.180;2022-08-02T05:07:57;16.23;;;7.03;;
37955;SDS011;23776;51.592;7.180;2022-08-02T05:10:23;17.50;;;6.88;;
37955;SDS011;23776;51.592;7.180;2022-08-02T05:12:49;16.58;;;8.50;;
37955;SDS011;23776;51.592;7.180;2022-08-02T05:15:15;14.80;;;7.18;;
37955;SDS011;23776;51.592;7.180;2022-08-02T05:17:42;15.38;;;7.00;;
37955;SDS011;23776;51.592;7.180;2022-08-02T05:20:09;12.63;;;7.18;;
37955;SDS011;23776;51.592;7.180;2022-08-02T05:22:37;11.35;;;6.88;;
37955;SDS011;23776;51.592;7.180;2022-08-02T05:25:03;12.60;;;7.18;;
37955;SDS011;23776;51.592;7.180;2022-08-02T05:27:29;13.48;;;7.55;;
37955;SDS011;23776;51.592;7.180;2022-08-02T05:29:57;16.15;;;6.88;;
37955;SDS011;23776;51.592;7.180;2022-08-02T05:32:24;14.52;;;7.47;;
37955;SDS011;23776;51.592;7.180;2022-08-02T05:34:49;13.45;;;7.32;;
37955;SDS011;23776;51.592;7.180;2022-08-02T05:37:15;14.32;;;7.97;;
37955;SDS011;23776;51.592;7.180;2022-08-02T05:39:41;15.77;;;7.75;;
37955;SDS011;23776;51.592;7.180;2022-08-02T05:42:07;14.10;;;7.72;;
37955;SDS011;23776;51.592;7.180;2022-08-02T05:44:32;16.75;;;8.00;;
37955;SDS011;23776;51.592;7.180;2022-08-02T05:46:58;12.55;;;8.15;;
37955;SDS011;23776;51.592;7.180;2022-08-02T05:49:24;13.57;;;8.40;;
37955;SDS011;23776;51.592;7.180;2022-08-02T05:51:59;17.50;;;8.32;;
37955;SDS011;23776;51.592;7.180;2022-08-02T06:02:28;14.35;;;7.68;;
37955;SDS011;23776;51.592;7.180;2022-08-02T06:05:03;14.95;;;8.35;;
37955;SDS011;23776;51.592;7.180;2022-08-02T06:07:36;10.48;;;7.57;;
37955;SDS011;23776;51.592;7.180;2022-08-02T06:10:03;12.90;;;8.23;;
37955;SDS011;23776;51.592;7.180;2022-08-02T06:12:31;12.00;;;7.95;;
37955;SDS011;23776;51.592;7.180;2022-08-02T06:14:58;17.13;;;8.77;;
37955;SDS011;23776;51.592;7.180;2022-08-02T06:17:26;15.82;;;8.90;;
37955;SDS011;23776;51.592;7.180;2022-08-02T06:19:54;21.00;;;9.55;;
37955;SDS011;23776;51.592;7.180;2022-08-02T06:22:23;16.80;;;8.63;;
37955;SDS011;23776;51.592;7.180;2022-08-02T06:24:50;14.93;;;7.85;;
37955;SDS011;23776;51.592;7.180;2022-08-02T06:27:18;13.45;;;6.82;;
37955;SDS011;23776;51.592;7.180;2022-08-02T06:29:46;13.05;;;6.75;;
37955;SDS011;23776;51.592;7.180;2022-08-02T06:32:16;12.32;;;5.97;;
37955;SDS011;23776;51.592;7.180;2022-08-02T06:34:43;19.30;;;7.57;;
37955;SDS011;23776;51.592;7.180;2022-08-02T06:40:07;15.45;;;7.03;;
37955;SDS011;23776;51.592;7.180;2022-08-02T06:42:48;14.02;;;6.82;;
37955;SDS011;23776;51.592;7.180;2022-08-02T06:45:21;15.68;;;6.07;;
37955;SDS011;23776;51.592;7.180;2022-08-02T06:47:47;9.15;;;6.25;;
37955;SDS011;23776;51.592;7.180;2022-08-02T06:50:13;16.08;;;6.60;;
37955;SDS011;23776;51.592;7.180;2022-08-02T06:52:38;17.38;;;6.45;;
37955;SDS011;23776;51.592;7.180;2022-08-02T06:55:04;12.02;;;5.32;;
37955;SDS011;23776;51.592;7.180;2022-08-02T06:57:31;16.58;;;7.25;;
37955;SDS011;23776;51.592;7.180;2022-08-02T06:59:57;10.60;;;5.25;;
37955;SDS011;23776;51.592;7.180;2022-08-02T07:02:26;11.40;;;6.25;;
37955;SDS011;23776;51.592;7.180;2022-08-02T07:04:53;12.60;;;6.25;;
37955;SDS011;23776;51.592;7.180;2022-08-02T07:07:19;13.10;;;5.40;;
37955;SDS011;23776;51.592;7.180;2022-08-02T07:09:44;15.00;;;7.15;;
37955;SDS011;23776;51.592;7.180;2022-08-02T07:12:10;16.58;;;7.07;;
37955;SDS011;23776;51.592;7.180;2022-08-02T07:14:35;12.65;;;6.22;;
37955;SDS011;23776;51.592;7.180;2022-08-02T07:17:01;17.95;;;6.43;;
37955;SDS011;23776;51.592;7.180;2022-08-02T07:19:27;14.57;;;6.10;;
37955;SDS011;23776;51.592;7.180;2022-08-02T07:21:53;17.88;;;5.57;;
37955;SDS011;23776;51.592;7.180;2022-08-02T07:24:19;11.10;;;5.43;;
37955;SDS011;23776;51.592;7.180;2022-08-02T07:26:44;9.93;;;5.13;;
37955;SDS011;23776;51.592;7.180;2022-08-02T07:29:10;10.88;;;5.15;;
37955;SDS011;23776;51.592;7.180;2022-08-02T07:31:35;14.27;;;5.35;;
37955;SDS011;23776;51.592;7.180;2022-08-02T07:34:01;11.27;;;5.38;;
37955;SDS011;23776;51.592;7.180;2022-08-02T07:36:27;9.13;;;4.63;;
37955;SDS011;23776;51.592;7.180;2022-08-02T07:38:52;7.45;;;4.28;;
37955;SDS011;23776;51.592;7.180;2022-08-02T07:41:18;9.90;;;3.88;;
37955;SDS011;23776;51.592;7.180;2022-08-02T07:43:43;10.70;;;4.80;;
37955;SDS011;23776;51.592;7.180;2022-08-02T07:46:09;11.63;;;4.20;;
37955;SDS011;23776;51.592;7.180;2022-08-02T07:48:35;6.90;;;3.47;;
37955;SDS011;23776;51.592;7.180;2022-08-02T07:51:00;9.35;;;3.25;;
37955;SDS011;23776;51.592;7.180;2022-08-02T07:53:26;8.52;;;3.53;;
37955;SDS011;23776;51.592;7.180;2022-08-02T07:55:51;6.85;;;3.50;;
37955;SDS011;23776;51.592;7.180;2022-08-02T07:58:17;10.68;;;3.45;;
37955;SDS011;23776;51.592;7.180;2022-08-02T08:00:42;6.80;;;3.13;;
37955;SDS011;23776;51.592;7.180;2022-08-02T08:03:10;5.38;;;3.33;;
37955;SDS011;23776;51.592;7.180;2022-08-02T08:05:36;7.68;;;3.00;;
37955;SDS011;23776;51.592;7.180;2022-08-02T08:08:02;8.30;;;2.92;;
37955;SDS011;23776;51.592;7.180;2022-08-02T08:10:27;5.00;;;2.35;;
37955;SDS011;23776;51.592;7.180;2022-08-02T08:12:53;5.57;;;2.88;;
37955;SDS011;23776;51.592;7.180;2022-08-02T08:15:19;7.25;;;2.90;;
37955;SDS011;23776;51.592;7.180;2022-08-02T08:17:45;5.88;;;2.47;;
37955;SDS011;23776;51.592;7.180;2022-08-02T08:20:11;11.45;;;3.05;;
37955;SDS011;23776;51.592;7.180;2022-08-02T08:22:36;6.00;;;1.90;;
37955;SDS011;23776;51.592;7.180;2022-08-02T08:25:02;6.10;;;2.50;;
37955;SDS011;23776;51.592;7.180;2022-08-02T08:27:28;5.47;;;2.20;;
37955;SDS011;23776;51.592;7.180;2022-08-02T08:29:54;7.30;;;2.50;;
37955;SDS011;23776;51.592;7.180;2022-08-02T08:32:19;7.75;;;2.20;;
37955;SDS011;23776;51.592;7.180;2022-08-02T08:34:45;4.88;;;2.33;;
37955;SDS011;23776;51.592;7.180;2022-08-02T08:37:11;4.28;;;1.73;;
37955;SDS011;23776;51.592;7.180;2022-08-02T08:39:37;2.95;;;1.70;;
37955;SDS011;23776;51.592;7.180;2022-08-02T08:42:06;4.10;;;1.70;;
37955;SDS011;23776;51.592;7.180;2022-08-02T08:44:32;3.90;;;2.22;;
37955;SDS011;23776;51.592;7.180;2022-08-02T08:46:59;4.55;;;2.20;;
37955;SDS011;23776;51.592;7.180;2022-08-02T08:49:30;4.45;;;1.75;;
37955;SDS011;23776;51.592;7.180;2022-08-02T08:51:59;4.03;;;1.70;;
37955;SDS011;23776;51.592;7.180;2022-08-02T08:54:28;7.47;;;2.08;;
37955;SDS011;23776;51.592;7.180;2022-08-02T08:56:54;2.90;;;1.83;;
37955;SDS011;23776;51.592;7.180;2022-08-02T08:59:21;2.78;;;1.70;;
37955;SDS011;23776;51.592;7.180;2022-08-02T09:01:47;4.78;;;1.85;;
37955;SDS011;23776;51.592;7.180;2022-08-02T09:04:14;3.60;;;1.85;;
37955;SDS011;23776;51.592;7.180;2022-08-02T09:06:41;5.18;;;2.20;;
37955;SDS011;23776;51.592;7.180;2022-08-02T09:09:06;4.70;;;2.28;;
37955;SDS011;23776;51.592;7.180;2022-08-02T09:11:32;5.18;;;2.08;;
37955;SDS011;23776;51.592;7.180;2022-08-02T09:13:59;4.20;;;1.83;;
37955;SDS011;23776;51.592;7.180;2022-08-02T09:16:32;3.40;;;2.00;;
37955;SDS011;23776;51.592;7.180;2022-08-02T09:19:19;4.70;;;1.85;;
37955;SDS011;23776;51.592;7.180;2022-08-02T09:21:50;1.70;;;1.60;;
37955;SDS011;23776;51.592;7.180;2022-08-02T09:24:20;7.18;;;1.90;;
37955;SDS011;23776;51.592;7.180;2022-08-02T09:26:48;3.20;;;2.10;;
37955;SDS011;23776;51.592;7.180;2022-08-02T09:29:15;4.78;;;2.40;;
37955;SDS011;23776;51.592;7.180;2022-08-02T09:31:41;5.32;;;2.08;;
37955;SDS011;23776;51.592;7.180;2022-08-02T09:34:08;3.60;;;2.08;;
37955;SDS011;23776;51.592;7.180;2022-08-02T09:36:41;9.18;;;2.55;;
37955;SDS011;23776;51.592;7.180;2022-08-02T09:39:09;3.20;;;1.85;;
37955;SDS011;23776;51.592;7.180;2022-08-02T09:41:38;6.22;;;2.58;;
37955;SDS011;23776;51.592;7.180;2022-08-02T09:44:06;2.25;;;2.05;;
37955;SDS011;23776;51.592;7.180;2022-08-02T09:46:35;3.33;;;2.17;;
37955;SDS011;23776;51.592;7.180;2022-08-02T09:49:03;4.70;;;2.58;;
37955;SDS011;23776;51.592;7.180;2022-08-02T09:51:31;3.92;;;2.88;;
37955;SDS011;23776;51.592;7.180;2022-08-02T09:54:03;4.97;;;2.53;;
37955;SDS011;23776;51.592;7.180;2022-08-02T09:56:43;4.25;;;2.42;;
37955;SDS011;23776;51.592;7.180;2022-08-02T09:59:11;5.68;;;2.55;;
37955;SDS011;23776;51.592;7.180;2022-08-02T10:01:38;6.30;;;2.67;;
37955;SDS011;23776;51.592;7.180;2022-08-02T10:04:05;3.85;;;2.80;;
37955;SDS011;23776;51.592;7.180;2022-08-02T10:06:35;6.75;;;2.80;;
37955;SDS011;23776;51.592;7.180;2022-08-02T10:09:01;5.78;;;3.53;;
37955;SDS011;23776;51.592;7.180;2022-08-02T10:11:27;5.85;;;3.42;;
37955;SDS011;23776;51.592;7.180;2022-08-02T10:13:53;4.57;;;3.08;;
37955;SDS011;23776;51.592;7.180;2022-08-02T10:16:20;4.38;;;2.65;;
37955;SDS011;23776;51.592;7.180;2022-08-02T10:18:53;5.30;;;2.97;;
37955;SDS011;23776;51.592;7.180;2022-08-02T10:24:11;3.53;;;2.95;;
37955;SDS011;23776;51.592;7.180;2022-08-02T10:26:39;7.85;;;3.40;;
37955;SDS011;23776;51.592;7.180;2022-08-02T10:29:08;5.25;;;2.90;;
37955;SDS011;23776;51.592;7.180;2022-08-02T10:31:40;7.65;;;3.50;;
37955;SDS011;23776;51.592;7.180;2022-08-02T10:34:14;6.15;;;3.63;;
37955;SDS011;23776;51.592;7.180;2022-08-02T10:36:43;6.13;;;3.90;;
37955;SDS011;23776;51.592;7.180;2022-08-02T10:39:10;6.93;;;3.70;;
37955;SDS011;23776;51.592;7.180;2022-08-02T10:41:40;6.05;;;3.28;;
37955;SDS011;23776;51.592;7.180;2022-08-02T10:44:24;9.20;;;4.93;;
37955;SDS011;23776;51.592;7.180;2022-08-02T10:46:52;5.18;;;3.40;;
37955;SDS011;23776;51.592;7.180;2022-08-02T10:49:46;7.00;;;3.72;;
37955;SDS011;23776;51.592;7.180;2022-08-02T10:52:20;8.02;;;3.65;;
37955;SDS011;23776;51.592;7.180;2022-08-02T10:55:09;4.28;;;3.15;;
37955;SDS011;23776;51.592;7.180;2022-08-02T10:57:34;6.85;;;3.70;;
37955;SDS011;23776;51.592;7.180;2022-08-02T11:00:02;4.38;;;3.47;;
37955;SDS011;23776;51.592;7.180;2022-08-02T11:02:37;3.65;;;2.78;;
37955;SDS011;23776;51.592;7.180;2022-08-02T11:05:08;6.90;;;3.80;;
37955;SDS011;23776;51.592;7.180;2022-08-02T11:07:41;6.07;;;3.45;;
37955;SDS011;23776;51.592;7.180;2022-08-02T11:15:51;6.50;;;3.25;;
37955;SDS011;23776;51.592;7.180;2022-08-02T11:20:45;5.45;;;3.40;;
37955;SDS011;23776;51.592;7.180;2022-08-02T11:26:49;3.13;;;2.83;;
37955;SDS011;23776;51.592;7.180;2022-08-02T11:28:59;6.75;;;3.28;;
37955;SDS011;23776;51.592;7.180;2022-08-02T11:31:27;4.90;;;3.08;;
37955;SDS011;23776;51.592;7.180;2022-08-02T11:33:53;7.18;;;2.67;;
37955;SDS011;23776;51.592;7.180;2022-08-02T11:36:19;6.85;;;2.80;;
37955;SDS011;23776;51.592;7.180;2022-08-02T11:38:45;5.18;;;2.67;;
37955;SDS011;23776;51.592;7.180;2022-08-02T11:41:18;4.95;;;2.90;;
37955;SDS011;23776;51.592;7.180;2022-08-02T11:43:44;7.00;;;2.75;;
37955;SDS011;23776;51.592;7.180;2022-08-02T11:46:13;4.90;;;3.45;;
37955;SDS011;23776;51.592;7.180;2022-08-02T11:48:39;3.47;;;3.17;;
37955;SDS011;23776;51.592;7.180;2022-08-02T11:53:33;5.60;;;2.50;;
37955;SDS011;23776;51.592;7.180;2022-08-02T11:58:31;3.75;;;2.30;;
37955;SDS011;23776;51.592;7.180;2022-08-02T12:00:57;4.45;;;2.50;;
37955;SDS011;23776;51.592;7.180;2022-08-02T12:03:23;3.08;;;2.58;;
37955;SDS011;23776;51.592;7.180;2022-08-02T12:05:49;4.90;;;2.35;;
37955;SDS011;23776;51.592;7.180;2022-08-02T12:08:14;3.38;;;2.08;;
37955;SDS011;23776;51.592;7.180;2022-08-02T12:10:47;6.07;;;2.40;;
37955;SDS011;23776;51.592;7.180;2022-08-02T12:13:13;3.38;;;2.28;;
37955;SDS011;23776;51.592;7.180;2022-08-02T12:15:39;5.25;;;2.30;;
37955;SDS011;23776;51.592;7.180;2022-08-02T12:18:09;4.88;;;2.33;;
37955;SDS011;23776;51.592;7.180;2022-08-02T12:20:55;7.28;;;2.63;;
37955;SDS011;23776;51.592;7.180;2022-08-02T12:23:21;3.85;;;2.40;;
37955;SDS011;23776;51.592;7.180;2022-08-02T12:26:06;8.65;;;3.95;;
37955;SDS011;23776;51.592;7.180;2022-08-02T12:28:34;4.00;;;2.00;;
37955;SDS011;23776;51.592;7.180;2022-08-02T12:31:03;5.30;;;2.42;;
37955;SDS011;23776;51.592;7.180;2022-08-02T12:36:22;3.58;;;2.35;;
37955;SDS011;23776;51.592;7.180;2022-08-02T12:39:00;10.60;;;2.22;;
37955;SDS011;23776;51.592;7.180;2022-08-02T12:41:27;4.38;;;2.72;;
37955;SDS011;23776;51.592;7.180;2022-08-02T12:43:54;2.65;;;2.30;;
37955;SDS011;23776;51.592;7.180;2022-08-02T12:46:21;4.30;;;2.40;;
37955;SDS011;23776;51.592;7.180;2022-08-02T12:48:47;3.92;;;1.92;;
37955;SDS011;23776;51.592;7.180;2022-08-02T12:54:18;2.65;;;1.88;;
37955;SDS011;23776;51.592;7.180;2022-08-02T12:56:46;2.45;;;2.00;;
37955;SDS011;23776;51.592;7.180;2022-08-02T12:59:12;3.10;;;2.33;;
37955;SDS011;23776;51.592;7.180;2022-08-02T13:01:38;6.40;;;2.45;;
37955;SDS011;23776;51.592;7.180;2022-08-02T13:04:03;3.05;;;1.80;;
37955;SDS011;23776;51.592;7.180;2022-08-02T13:06:30;3.22;;;1.90;;
37955;SDS011;23776;51.592;7.180;2022-08-02T13:08:55;2.75;;;1.98;;
37955;SDS011;23776;51.592;7.180;2022-08-02T13:11:22;3.30;;;2.20;;
37955;SDS011;23776;51.592;7.180;2022-08-02T13:13:48;4.38;;;2.38;;
37955;SDS011;23776;51.592;7.180;2022-08-02T13:16:14;4.38;;;2.42;;
37955;SDS011;23776;51.592;7.180;2022-08-02T13:18:40;4.63;;;2.20;;
37955;SDS011;23776;51.592;7.180;2022-08-02T13:21:06;2.95;;;2.10;;
37955;SDS011;23776;51.592;7.180;2022-08-02T13:23:32;3.75;;;1.60;;
37955;SDS011;23776;51.592;7.180;2022-08-02T13:25:59;6.28;;;2.08;;
37955;SDS011;23776;51.592;7.180;2022-08-02T13:28:25;3.65;;;2.00;;
37955;SDS011;23776;51.592;7.180;2022-08-02T13:30:51;3.67;;;1.80;;
37955;SDS011;23776;51.592;7.180;2022-08-02T13:33:17;4.97;;;1.80;;
37955;SDS011;23776;51.592;7.180;2022-08-02T13:35:43;2.25;;;1.60;;
37955;SDS011;23776;51.592;7.180;2022-08-02T13:38:10;2.50;;;1.90;;
37955;SDS011;23776;51.592;7.180;2022-08-02T13:40:36;4.88;;;2.10;;
37955;SDS011;23776;51.592;7.180;2022-08-02T13:43:20;2.60;;;1.83;;
37955;SDS011;23776;51.592;7.180;2022-08-02T13:45:46;1.90;;;1.67;;
37955;SDS011;23776;51.592;7.180;2022-08-02T13:48:12;2.95;;;2.10;;
37955;SDS011;23776;51.592;7.180;2022-08-02T13:50:37;2.25;;;1.65;;
37955;SDS011;23776;51.592;7.180;2022-08-02T13:53:03;2.50;;;1.83;;
37955;SDS011;23776;51.592;7.180;2022-08-02T13:55:29;3.22;;;1.80;;
37955;SDS011;23776;51.592;7.180;2022-08-02T13:57:54;8.18;;;1.70;;
37955;SDS011;23776;51.592;7.180;2022-08-02T14:00:21;3.05;;;1.92;;
37955;SDS011;23776;51.592;7.180;2022-08-02T14:02:46;4.43;;;1.92;;
37955;SDS011;23776;51.592;7.180;2022-08-02T14:05:12;3.05;;;2.20;;
37955;SDS011;23776;51.592;7.180;2022-08-02T14:07:38;4.05;;;1.80;;
37955;SDS011;23776;51.592;7.180;2022-08-02T14:10:04;4.32;;;1.98;;
37955;SDS011;23776;51.592;7.180;2022-08-02T14:12:30;2.75;;;2.13;;
37955;SDS011;23776;51.592;7.180;2022-08-02T14:14:55;2.83;;;1.80;;
37955;SDS011;23776;51.592;7.180;2022-08-02T14:17:21;3.67;;;2.00;;
37955;SDS011;23776;51.592;7.180;2022-08-02T14:19:47;3.00;;;1.92;;
37955;SDS011;23776;51.592;7.180;2022-08-02T14:22:12;3.95;;;2.00;;
37955;SDS011;23776;51.592;7.180;2022-08-02T14:24:38;2.85;;;1.77;;
37955;SDS011;23776;51.592;7.180;2022-08-02T14:27:05;5.40;;;2.17;;
37955;SDS011;23776;51.592;7.180;2022-08-02T14:29:31;9.95;;;1.83;;
37955;SDS011;23776;51.592;7.180;2022-08-02T14:31:57;2.75;;;2.00;;
37955;SDS011;23776;51.592;7.180;2022-08-02T14:34:22;3.38;;;1.70;;
37955;SDS011;23776;51.592;7.180;2022-08-02T14:36:48;2.63;;;1.92;;
37955;SDS011;23776;51.592;7.180;2022-08-02T14:39:13;1.75;;;1.55;;
37955;SDS011;23776;51.592;7.180;2022-08-02T14:41:39;2.00;;;1.80;;
37955;SDS011;23776;51.592;7.180;2022-08-02T14:44:05;6.43;;;1.83;;
37955;SDS011;23776;51.592;7.180;2022-08-02T14:46:35;3.70;;;2.10;;
37955;SDS011;23776;51.592;7.180;2022-08-02T14:49:05;4.03;;;1.80;;
37955;SDS011;23776;51.592;7.180;2022-08-02T14:51:32;2.05;;;1.35;;
37955;SDS011;23776;51.592;7.180;2022-08-02T14:53:59;3.75;;;1.77;;
37955;SDS011;23776;51.592;7.180;2022-08-02T14:56:25;6.15;;;1.52;;
37955;SDS011;23776;51.592;7.180;2022-08-02T14:58:51;3.78;;;1.98;;
37955;SDS011;23776;51.592;7.180;2022-08-02T15:01:17;2.72;;;1.63;;
37955;SDS011;23776;51.592;7.180;2022-08-02T15:03:43;3.55;;;1.73;;
37955;SDS011;23776;51.592;7.180;2022-08-02T15:06:09;3.15;;;1.55;;
37955;SDS011;23776;51.592;7.180;2022-08-02T15:08:34;2.67;;;2.00;;
37955;SDS011;23776;51.592;7.180;2022-08-02T15:11:00;1.83;;;1.63;;
37955;SDS011;23776;51.592;7.180;2022-08-02T15:13:26;4.57;;;1.83;;
37955;SDS011;23776;51.592;7.180;2022-08-02T15:15:51;2.35;;;1.77;;
37955;SDS011;23776;51.592;7.180;2022-08-02T15:18:17;3.13;;;1.63;;
37955;SDS011;23776;51.592;7.180;2022-08-02T15:20:43;3.05;;;1.45;;
37955;SDS011;23776;51.592;7.180;2022-08-02T15:23:10;2.30;;;1.48;;
37955;SDS011;23776;51.592;7.180;2022-08-02T15:25:37;2.38;;;1.63;;
37955;SDS011;23776;51.592;7.180;2022-08-02T15:28:03;6.20;;;1.80;;
37955;SDS011;23776;51.592;7.180;2022-08-02T15:30:31;4.53;;;1.77;;
37955;SDS011;23776;51.592;7.180;2022-08-02T15:32:57;4.35;;;1.98;;
37955;SDS011;23776;51.592;7.180;2022-08-02T15:35:23;3.25;;;1.35;;